Time;durP1;ratioP1;P1;durP2;ratioP2;P2;SDS_P1;SDS_P2;PMS_P1;PMS_P2;Temp;Humidity;BMP_temperature;BMP_pressure;BME280_temperature;BME280_humidity;BME280_pressure;Samples;Min_cycle;Max_cycle;Signal;HPM_P1;HPM_P2
2022/09/15 00:01:12;;;;;;;11.43;3.20;;;15.50;76.50;;;;;;5031846;28;20221;-75
2022/09/15 00:03:41;;;;;;;9.37;2.83;;;15.80;75.30;;;;;;5031711;28;20609;-75
2022/09/15 00:06:09;;;;;;;4.93;3.30;;;15.90;75.40;;;;;;5029882;28;20217;-74
2022/09/15 00:08:37;;;;;;;5.77;2.77;;;16.00;74.20;;;;;;5027299;28;20239;-73
2022/09/15 00:11:09;;;;;;;6.07;3.00;;;16.30;73.50;;;;;;5029450;28;20173;-76
2022/09/15 00:13:38;;;;;;;5.67;2.83;;;16.50;73.50;;;;;;5021042;28;20207;-74
2022/09/15 00:16:06;;;;;;;8.03;2.83;;;16.50;72.20;;;;;;5026854;28;20217;-74
2022/09/15 00:18:35;;;;;;;6.03;2.70;;;16.60;72.60;;;;;;5028957;28;20261;-74
2022/09/15 00:21:07;;;;;;;9.73;2.80;;;16.70;73.40;;;;;;5024025;28;20720;-75
2022/09/15 00:23:35;;;;;;;7.83;2.70;;;16.80;73.30;;;;;;5031320;28;20195;-74
2022/09/15 00:26:05;;;;;;;6.90;2.20;;;17.00;72.50;;;;;;5031073;28;20187;-74
2022/09/15 00:28:33;;;;;;;8.53;2.30;;;17.20;72.50;;;;;;5031690;28;20211;-77
2022/09/15 00:31:03;;;;;;;5.43;2.13;;;17.20;72.20;;;;;;5027981;28;20638;-75
2022/09/15 00:33:31;;;;;;;3.80;2.20;;;17.20;71.80;;;;;;5027118;28;20675;-75
2022/09/15 00:36:05;;;;;;;8.97;1.87;;;17.30;71.80;;;;;;5026801;28;20180;-75
2022/09/15 00:38:33;;;;;;;3.50;2.00;;;17.70;71.80;;;;;;5031382;28;20191;-77
2022/09/15 00:41:02;;;;;;;12.57;2.57;;;17.70;70.80;;;;;;5038556;28;20179;-77
2022/09/15 00:43:41;;;;;;;4.80;2.00;;;17.80;70.30;;;;;;5030516;28;20521;-75
2022/09/15 00:46:09;;;;;;;5.20;2.13;;;17.80;69.70;;;;;;5027889;28;20192;-83
2022/09/15 00:48:41;;;;;;;5.83;2.20;;;17.70;69.70;;;;;;5029048;28;20303;-77
2022/09/15 00:51:11;;;;;;;3.30;2.40;;;17.80;69.30;;;;;;5035018;28;20176;-85
2022/09/15 00:53:39;;;;;;;7.10;2.80;;;17.60;70.30;;;;;;5028624;28;20212;-77
2022/09/15 00:56:11;;;;;;;6.00;1.97;;;17.40;70.30;;;;;;5032883;28;20271;-76
2022/09/15 00:58:58;;;;;;;7.37;2.00;;;17.50;70.20;;;;;;5033429;28;20238;-78
2022/09/15 01:01:27;;;;;;;6.17;2.67;;;17.70;71.70;;;;;;5034380;28;20187;-77
2022/09/15 01:03:55;;;;;;;4.67;2.33;;;18.30;67.80;;;;;;5039665;28;20664;-73
2022/09/15 01:06:44;;;;;;;4.70;2.37;;;18.30;68.40;;;;;;5031287;28;20366;-74
2022/09/15 01:09:23;;;;;;;6.63;2.20;;;18.50;67.70;;;;;;5029393;28;20267;-73
2022/09/15 01:11:50;;;;;;;4.13;1.80;;;18.60;67.70;;;;;;5026360;28;20183;-76
2022/09/15 01:14:18;;;;;;;6.60;1.97;;;18.60;68.30;;;;;;5031514;28;20188;-74
2022/09/15 01:17:21;;;;;;;2.70;1.73;;;18.80;65.90;;;;;;5030664;28;20256;-75
2022/09/15 01:20:24;;;;;;;7.47;2.17;;;19.00;66.00;;;;;;5035679;28;20188;-74
2022/09/15 01:23:10;;;;;;;4.20;2.20;;;19.10;65.60;;;;;;5031399;28;20649;-75
2022/09/15 01:25:55;;;;;;;5.37;2.10;;;19.30;64.80;;;;;;5033129;28;20196;-75
2022/09/15 01:28:53;;;;;;;4.60;1.93;;;19.20;64.20;;;;;;5032271;28;20291;-76
2022/09/15 01:34:42;;;;;;;6.40;2.07;;;18.80;64.90;;;;;;5033944;28;20203;-76
2022/09/15 01:37:17;;;;;;;5.03;2.13;;;19.20;63.50;;;;;;5034219;28;20222;-78
2022/09/15 01:39:48;;;;;;;2.73;2.03;;;18.90;63.60;;;;;;5034727;28;20278;-75
2022/09/15 01:42:38;;;;;;;3.07;1.87;;;18.50;63.60;;;;;;5034583;28;20198;-75
2022/09/15 01:45:13;;;;;;;5.60;1.83;;;18.20;65.60;;;;;;5033255;28;20200;-74
2022/09/15 01:47:42;;;;;;;4.33;1.93;;;18.30;65.10;;;;;;5033918;28;20636;-75
2022/09/15 01:50:15;;;;;;;3.43;1.93;;;18.00;66.40;;;;;;5027846;28;20181;-74
2022/09/15 01:52:49;;;;;;;5.53;1.83;;;18.10;66.40;;;;;;5030897;28;20212;-75
2022/09/15 01:55:44;;;;;;;3.80;1.90;;;18.20;65.80;;;;;;5030373;28;20187;-75
2022/09/15 01:58:12;;;;;;;4.40;1.70;;;18.20;65.50;;;;;;5029678;28;20278;-74
2022/09/15 02:00:44;;;;;;;2.97;1.67;;;18.30;66.00;;;;;;5033285;28;20637;-74
2022/09/15 02:03:32;;;;;;;3.83;1.60;;;18.20;66.20;;;;;;5030843;28;20650;-74
2022/09/15 02:06:09;;;;;;;3.17;1.43;;;18.30;65.10;;;;;;5034105;28;20227;-74
2022/09/15 02:08:51;;;;;;;7.50;1.90;;;18.10;65.50;;;;;;5033645;28;20295;-74
2022/09/15 02:11:20;;;;;;;3.37;1.63;;;18.20;65.80;;;;;;5034291;28;20169;-74
2022/09/15 02:14:19;;;;;;;4.40;2.70;;;18.20;65.60;;;;;;5018045;28;20264;-74
2022/09/15 02:16:53;;;;;;;5.43;1.90;;;18.30;65.80;;;;;;5030552;28;20195;-74
2022/09/15 02:19:35;;;;;;;4.97;1.70;;;18.70;64.50;;;;;;5039543;28;20622;-74
2022/09/15 02:22:22;;;;;;;6.00;1.77;;;19.10;63.30;;;;;;5014394;28;20192;-75
2022/09/15 02:25:01;;;;;;;2.90;1.40;;;19.00;63.40;;;;;;5030025;28;20188;-74
2022/09/15 02:27:37;;;;;;;2.97;1.40;;;19.00;63.20;;;;;;5032081;28;20271;-73
2022/09/15 02:30:10;;;;;;;5.57;1.67;;;19.00;62.90;;;;;;5022930;28;20215;-74
2022/09/15 02:32:41;;;;;;;4.57;1.80;;;18.70;63.10;;;;;;5032105;28;20180;-75
2022/09/15 02:35:10;;;;;;;1.97;1.57;;;18.80;63.90;;;;;;5033243;28;20585;-75
2022/09/15 02:37:38;;;;;;;5.40;1.70;;;18.70;63.80;;;;;;5033723;28;20219;-74
2022/09/15 02:40:07;;;;;;;1.80;1.40;;;18.60;63.80;;;;;;5033700;28;20326;-74
2022/09/15 02:42:35;;;;;;;4.40;1.53;;;18.30;64.90;;;;;;5033130;28;20522;-74
2022/09/15 02:45:03;;;;;;;2.47;1.50;;;18.20;65.30;;;;;;5028459;28;20184;-74
2022/09/15 02:47:30;;;;;;;2.80;1.67;;;17.90;66.10;;;;;;5023448;28;20189;-75
2022/09/15 02:49:58;;;;;;;3.93;1.87;;;17.90;65.40;;;;;;5026513;28;20212;-75
2022/09/15 02:52:25;;;;;;;4.40;2.03;;;17.80;66.10;;;;;;5025193;28;20271;-75
2022/09/15 02:54:53;;;;;;;3.63;2.00;;;17.80;65.70;;;;;;5022592;28;20199;-75
2022/09/15 02:57:20;;;;;;;3.43;1.80;;;17.70;66.60;;;;;;5033412;28;20242;-76
2022/09/15 03:02:33;;;;;;;2.43;1.43;;;17.40;68.30;;;;;;5032040;28;20545;-74
2022/09/15 03:05:00;;;;;;;5.73;1.87;;;17.30;68.90;;;;;;5032313;28;20692;-74
2022/09/15 03:07:29;;;;;;;2.27;1.60;;;17.40;69.30;;;;;;5029480;28;20231;-75
2022/09/15 03:09:57;;;;;;;3.33;1.80;;;17.30;69.60;;;;;;5027425;28;20658;-74
2022/09/15 03:12:25;;;;;;;4.00;1.80;;;17.30;69.90;;;;;;5031996;28;20172;-74
2022/09/15 03:14:52;;;;;;;4.23;1.60;;;17.30;69.90;;;;;;5026293;28;20280;-76
2022/09/15 03:17:20;;;;;;;3.03;1.70;;;17.30;69.80;;;;;;5026319;28;20539;-75
2022/09/15 03:19:48;;;;;;;4.07;1.70;;;17.30;70.10;;;;;;5030223;28;20219;-74
2022/09/15 03:22:16;;;;;;;3.10;1.70;;;17.40;70.50;;;;;;5025661;28;20219;-74
2022/09/15 03:24:44;;;;;;;2.63;1.43;;;17.40;70.80;;;;;;5031896;28;20284;-74
2022/09/15 03:27:11;;;;;;;4.77;2.37;;;17.30;71.00;;;;;;5030535;28;20275;-75
2022/09/15 03:29:38;;;;;;;3.10;1.90;;;17.20;71.10;;;;;;5029041;28;20258;-75
2022/09/15 03:32:06;;;;;;;4.27;1.73;;;17.30;71.40;;;;;;5033593;28;20180;-74
2022/09/15 03:34:33;;;;;;;6.07;2.73;;;17.20;71.10;;;;;;5030577;28;20218;-74
2022/09/15 03:37:00;;;;;;;7.13;2.73;;;17.30;71.30;;;;;;5030848;28;20276;-78
2022/09/15 03:39:28;;;;;;;8.37;2.70;;;17.20;71.50;;;;;;5024677;28;20264;-73
2022/09/15 03:41:55;;;;;;;4.07;1.40;;;17.20;71.20;;;;;;5029551;28;20188;-74
2022/09/15 03:44:23;;;;;;;3.40;1.40;;;17.00;71.00;;;;;;5028495;28;20205;-75
2022/09/15 03:46:50;;;;;;;1.80;1.20;;;16.90;71.40;;;;;;5026742;28;20184;-73
2022/09/15 03:49:18;;;;;;;2.20;1.37;;;16.80;71.50;;;;;;5030696;28;20209;-73
2022/09/15 03:51:45;;;;;;;5.40;2.00;;;16.70;72.50;;;;;;5024884;28;20653;-75
2022/09/15 03:54:12;;;;;;;4.53;1.97;;;16.50;74.40;;;;;;5031666;28;20236;-73
2022/09/15 03:56:40;;;;;;;3.50;2.00;;;16.30;74.20;;;;;;5029492;28;20183;-74
2022/09/15 03:59:08;;;;;;;2.97;1.60;;;16.20;75.50;;;;;;5031299;28;20867;-73
2022/09/15 04:01:35;;;;;;;5.83;4.27;;;16.10;75.50;;;;;;5030858;28;20258;-72
2022/09/15 04:04:03;;;;;;;2.97;2.47;;;16.00;76.40;;;;;;5032744;28;20194;-71
2022/09/15 04:06:30;;;;;;;3.23;2.00;;;15.90;77.20;;;;;;5029076;28;20756;-73
2022/09/15 04:09:01;;;;;;;3.30;1.70;;;15.90;77.50;;;;;;5024201;28;20701;-77
2022/09/15 04:11:29;;;;;;;3.87;1.90;;;15.80;78.50;;;;;;5031611;28;20171;-75
2022/09/15 04:13:56;;;;;;;4.33;2.20;;;15.80;79.40;;;;;;5032736;28;20176;-73
2022/09/15 04:16:28;;;;;;;5.47;2.60;;;15.70;80.90;;;;;;5031694;28;20186;-72
2022/09/15 04:18:56;;;;;;;4.90;2.50;;;15.60;82.20;;;;;;5031852;28;20184;-73
2022/09/15 04:21:25;;;;;;;4.63;1.90;;;15.50;82.90;;;;;;5029401;28;20231;-74
2022/09/15 04:23:54;;;;;;;7.53;2.23;;;15.40;82.50;;;;;;5030810;28;20264;-74
2022/09/15 04:26:30;;;;;;;4.47;2.40;;;15.30;83.00;;;;;;5034014;28;20550;-74
2022/09/15 04:28:57;;;;;;;4.13;1.87;;;15.20;83.90;;;;;;5034749;28;20215;-73
2022/09/15 04:31:25;;;;;;;6.00;2.23;;;15.10;83.50;;;;;;5027112;28;20274;-71
2022/09/15 04:33:54;;;;;;;5.73;1.73;;;15.00;83.00;;;;;;5032576;28;20569;-72
2022/09/15 04:36:27;;;;;;;5.53;2.40;;;14.90;83.90;;;;;;5034757;28;20181;-72
2022/09/15 04:38:55;;;;;;;6.27;2.30;;;14.80;84.70;;;;;;5034539;28;20207;-71
2022/09/15 04:41:22;;;;;;;3.00;2.23;;;14.80;85.60;;;;;;5034558;28;20181;-72
2022/09/15 04:43:52;;;;;;;6.07;2.47;;;14.70;85.50;;;;;;5035914;28;20243;-72
2022/09/15 04:46:20;;;;;;;4.70;2.40;;;14.60;86.00;;;;;;5034485;28;20188;-71
2022/09/15 04:48:47;;;;;;;5.63;2.60;;;14.50;86.50;;;;;;5034978;28;20247;-72
2022/09/15 04:51:19;;;;;;;2.70;2.37;;;14.50;86.80;;;;;;5035386;28;20208;-72
2022/09/15 04:53:47;;;;;;;11.03;4.10;;;14.40;86.90;;;;;;5022739;28;20190;-70
2022/09/15 04:56:25;;;;;;;9.80;3.57;;;14.40;87.40;;;;;;5025956;28;20193;-71
2022/09/15 04:58:58;;;;;;;7.17;2.87;;;14.40;87.60;;;;;;5035736;28;20183;-72
2022/09/15 05:01:30;;;;;;;8.37;3.90;;;14.30;87.80;;;;;;5037978;28;20180;-72
2022/09/15 05:04:05;;;;;;;9.27;3.37;;;14.40;88.30;;;;;;5034602;28;20588;-73
2022/09/15 05:06:33;;;;;;;8.07;3.13;;;14.50;89.30;;;;;;5034035;28;20220;-72
2022/09/15 05:09:01;;;;;;;5.80;3.33;;;14.50;88.70;;;;;;5033361;28;20270;-73
2022/09/15 05:11:29;;;;;;;7.17;3.97;;;14.50;88.80;;;;;;5031712;28;20173;-73
2022/09/15 05:13:57;;;;;;;5.97;2.87;;;14.50;89.00;;;;;;5033644;28;20181;-72
2022/09/15 05:16:26;;;;;;;13.97;11.53;;;14.40;88.60;;;;;;5031319;28;20694;-71
2022/09/15 05:18:56;;;;;;;11.73;10.53;;;14.50;88.90;;;;;;5033950;28;20206;-74
2022/09/15 05:21:25;;;;;;;6.57;3.10;;;14.60;89.00;;;;;;5033270;28;20222;-71
2022/09/15 05:23:52;;;;;;;5.30;3.00;;;14.60;88.80;;;;;;5021039;28;20192;-73
2022/09/15 05:26:24;;;;;;;4.13;3.00;;;14.70;88.90;;;;;;5035323;28;20203;-72
2022/09/15 05:28:52;;;;;;;5.53;2.90;;;14.70;88.50;;;;;;5034671;28;20258;-73
2022/09/15 05:31:29;;;;;;;5.23;2.97;;;14.80;88.30;;;;;;5034804;28;20204;-72
2022/09/15 05:33:58;;;;;;;2.90;2.60;;;15.00;88.60;;;;;;5034785;28;20242;-72
2022/09/15 05:36:26;;;;;;;5.93;3.30;;;15.00;88.10;;;;;;5033988;28;20176;-72
2022/09/15 05:38:57;;;;;;;6.63;2.80;;;15.10;88.10;;;;;;5035046;28;20178;-71
2022/09/15 05:41:26;;;;;;;4.93;2.57;;;15.10;87.90;;;;;;5035345;28;20635;-72
2022/09/15 05:43:58;;;;;;;5.80;2.60;;;15.20;87.50;;;;;;5034944;28;20192;-71
2022/09/15 05:46:26;;;;;;;4.70;3.00;;;15.40;86.90;;;;;;5035124;28;20576;-71
2022/09/15 05:48:55;;;;;;;4.47;2.50;;;16.20;86.40;;;;;;5034442;28;20223;-72
2022/09/15 05:51:23;;;;;;;5.53;2.50;;;17.00;84.40;;;;;;5034755;28;20634;-72
2022/09/15 05:53:50;;;;;;;13.50;2.60;;;17.40;83.30;;;;;;5020103;28;20189;-73
2022/09/15 05:56:19;;;;;;;3.13;2.20;;;17.00;83.30;;;;;;5024376;28;20176;-72
2022/09/15 05:58:48;;;;;;;4.27;2.50;;;16.60;83.60;;;;;;5037420;28;20195;-74
2022/09/15 06:01:18;;;;;;;3.63;2.30;;;16.30;83.70;;;;;;5039022;28;20279;-75
2022/09/15 06:03:46;;;;;;;5.27;2.40;;;15.90;84.90;;;;;;5030670;28;20772;-74
2022/09/15 06:06:25;;;;;;;4.13;2.40;;;15.60;84.90;;;;;;5028905;28;20229;-74
2022/09/15 06:08:56;;;;;;;5.27;3.20;;;15.40;86.10;;;;;;5032538;28;20217;-73
2022/09/15 06:11:26;;;;;;;8.33;3.73;;;15.20;86.20;;;;;;5034665;28;20309;-74
2022/09/15 06:13:53;;;;;;;7.03;3.73;;;15.20;86.60;;;;;;5034096;28;20651;-74
2022/09/15 06:16:23;;;;;;;8.97;3.50;;;15.20;87.20;;;;;;5032989;28;20190;-72
2022/09/15 06:18:52;;;;;;;6.43;3.37;;;15.20;87.10;;;;;;5023885;28;21070;-73
2022/09/15 06:21:23;;;;;;;6.40;3.57;;;15.10;87.10;;;;;;5034326;28;20208;-73
2022/09/15 06:23:54;;;;;;;6.93;4.10;;;15.20;87.20;;;;;;5033928;28;20250;-74
2022/09/15 06:26:23;;;;;;;7.13;4.03;;;15.20;87.30;;;;;;5023334;28;20197;-73
2022/09/15 06:28:53;;;;;;;7.77;4.07;;;15.20;87.70;;;;;;5033594;28;20213;-74
2022/09/15 06:31:21;;;;;;;8.23;4.30;;;15.20;87.70;;;;;;5020381;28;20195;-74
2022/09/15 06:33:51;;;;;;;6.67;3.80;;;15.30;87.70;;;;;;5025789;28;20248;-73
2022/09/15 06:36:20;;;;;;;9.57;4.07;;;15.20;87.00;;;;;;5034011;28;20186;-73
2022/09/15 06:38:48;;;;;;;5.47;4.10;;;15.20;86.80;;;;;;5032141;28;20188;-73
2022/09/15 06:41:15;;;;;;;8.40;4.07;;;15.20;86.90;;;;;;5039026;28;20219;-74
2022/09/15 06:43:48;;;;;;;4.40;3.67;;;15.10;87.10;;;;;;5029327;28;20525;-74
2022/09/15 06:46:18;;;;;;;6.97;3.93;;;15.10;87.10;;;;;;5031725;28;20822;-72
2022/09/15 06:48:45;;;;;;;8.03;4.67;;;15.00;86.70;;;;;;5033353;28;20215;-75
2022/09/15 06:51:14;;;;;;;5.77;4.03;;;15.00;86.70;;;;;;5032828;28;20176;-73
2022/09/15 06:53:42;;;;;;;5.87;4.00;;;15.00;86.70;;;;;;5033282;28;20194;-75
2022/09/15 06:56:13;;;;;;;8.33;4.17;;;14.90;86.30;;;;;;5033469;28;20173;-74
2022/09/15 06:58:42;;;;;;;8.00;4.77;;;14.90;86.40;;;;;;5032834;28;20215;-75
2022/09/15 07:01:12;;;;;;;6.53;4.27;;;14.90;86.60;;;;;;5032229;28;20263;-74
2022/09/15 07:03:42;;;;;;;13.53;4.60;;;15.00;86.70;;;;;;5018517;28;20207;-74
2022/09/15 07:06:13;;;;;;;13.43;4.43;;;14.90;86.60;;;;;;5032927;28;20216;-75
2022/09/15 07:08:41;;;;;;;13.87;5.00;;;14.90;86.90;;;;;;5032398;28;20224;-76
2022/09/15 07:11:10;;;;;;;9.13;4.70;;;14.90;86.70;;;;;;5026874;28;20651;-75
2022/09/15 07:13:38;;;;;;;11.03;4.10;;;15.00;87.20;;;;;;5031371;28;20184;-76
2022/09/15 07:16:07;;;;;;;7.23;4.57;;;14.90;87.20;;;;;;5028070;28;20635;-75
2022/09/15 07:18:35;;;;;;;14.07;5.23;;;14.90;86.90;;;;;;5029652;28;20202;-76
2022/09/15 07:21:09;;;;;;;7.13;5.03;;;14.90;86.90;;;;;;5033115;28;20180;-75
2022/09/15 07:23:37;;;;;;;8.90;4.37;;;15.00;87.10;;;;;;5030918;28;20184;-76
2022/09/15 07:26:09;;;;;;;12.13;5.60;;;15.00;86.80;;;;;;5031854;28;20268;-76
2022/09/15 07:28:37;;;;;;;10.77;5.20;;;15.00;87.10;;;;;;5025620;28;20209;-75
2022/09/15 07:31:06;;;;;;;13.60;5.40;;;15.00;86.70;;;;;;5029890;28;20211;-74
2022/09/15 07:33:34;;;;;;;8.90;4.50;;;15.00;86.70;;;;;;5026903;28;20209;-75
2022/09/15 07:36:08;;;;;;;11.07;4.90;;;15.00;86.70;;;;;;5029899;28;20172;-75
2022/09/15 07:38:41;;;;;;;8.37;4.80;;;15.00;86.70;;;;;;5032208;28;20187;-76
2022/09/15 07:41:20;;;;;;;11.77;5.70;;;15.00;86.80;;;;;;5032910;28;20176;-77
2022/09/15 07:43:49;;;;;;;6.13;4.13;;;15.00;87.00;;;;;;5031204;28;20523;-74
2022/09/15 07:46:17;;;;;;;8.27;5.00;;;15.00;87.20;;;;;;5031791;28;20178;-76
2022/09/15 07:48:49;;;;;;;9.03;5.40;;;15.00;87.60;;;;;;5025694;28;20300;-73
2022/09/15 07:51:18;;;;;;;9.83;5.60;;;15.00;87.90;;;;;;5028220;28;20544;-71
2022/09/15 07:53:47;;;;;;;12.50;6.17;;;14.90;88.30;;;;;;5032293;28;20195;-71
2022/09/15 07:56:19;;;;;;;11.50;6.33;;;14.80;88.60;;;;;;5032541;28;20267;-74
2022/09/15 07:58:48;;;;;;;12.23;6.17;;;14.80;89.00;;;;;;5027454;28;20188;-75
2022/09/15 08:01:17;;;;;;;17.03;7.20;;;14.80;89.40;;;;;;5044395;28;20275;-76
2022/09/15 08:03:47;;;;;;;10.43;6.17;;;14.70;89.80;;;;;;5032054;28;20227;-76
2022/09/15 08:06:17;;;;;;;11.97;6.80;;;14.70;90.10;;;;;;5032727;28;20232;-78
2022/09/15 08:08:44;;;;;;;12.87;6.53;;;14.60;90.30;;;;;;5031711;28;20212;-76
2022/09/15 08:11:17;;;;;;;12.57;6.97;;;14.60;90.40;;;;;;5031853;28;20780;-78
2022/09/15 08:13:45;;;;;;;13.43;8.20;;;14.50;90.50;;;;;;5032264;28;20180;-77
2022/09/15 08:16:18;;;;;;;11.83;7.90;;;14.60;90.90;;;;;;5031394;28;20488;-78
2022/09/15 08:18:46;;;;;;;12.03;7.50;;;14.50;90.90;;;;;;5030837;28;20174;-78
2022/09/15 08:21:19;;;;;;;14.60;8.17;;;14.60;91.10;;;;;;5032573;28;20176;-78
2022/09/15 08:23:51;;;;;;;12.77;8.97;;;14.60;91.20;;;;;;5032275;28;20176;-78
2022/09/15 08:26:19;;;;;;;12.63;8.20;;;14.70;91.70;;;;;;5032454;28;20537;-79
2022/09/15 08:28:46;;;;;;;16.47;9.93;;;14.60;91.50;;;;;;5031749;28;20226;-79
2022/09/15 08:31:14;;;;;;;17.83;9.83;;;14.60;91.60;;;;;;5032286;28;20181;-79
2022/09/15 08:33:42;;;;;;;16.93;9.17;;;14.70;92.00;;;;;;5032271;28;20185;-79
2022/09/15 08:36:10;;;;;;;17.27;9.13;;;14.70;91.90;;;;;;5031664;28;20195;-79
2022/09/15 08:38:43;;;;;;;20.93;10.27;;;14.70;91.90;;;;;;5032240;28;20177;-80
2022/09/15 08:41:25;;;;;;;12.03;8.80;;;14.70;92.00;;;;;;5029074;28;20185;-78
2022/09/15 08:44:28;;;;;;;17.93;9.63;;;14.70;92.00;;;;;;5031931;28;20639;-78
2022/09/15 08:47:13;;;;;;;13.97;9.40;;;14.70;92.10;;;;;;5031302;28;20191;-79
2022/09/15 08:50:28;;;;;;;15.23;9.00;;;14.60;92.10;;;;;;5031792;28;20216;-80
2022/09/15 08:53:19;;;;;;;17.17;9.47;;;14.60;92.10;;;;;;4969994;28;20179;-80
2022/09/15 08:55:59;;;;;;;13.73;9.13;;;14.60;92.10;;;;;;4971629;28;20217;-80
2022/09/15 08:58:29;;;;;;;15.33;9.33;;;14.60;92.20;;;;;;5020002;28;20677;-81
2022/09/15 09:01:02;;;;;;;15.50;8.10;;;14.50;92.30;;;;;;5039485;28;20260;-78
2022/09/15 09:03:47;;;;;;;13.90;9.73;;;14.60;92.40;;;;;;5052132;28;20322;-77
2022/09/15 09:06:35;;;;;;;11.73;8.53;;;14.60;92.50;;;;;;5032280;28;20260;-81
2022/09/15 09:09:24;;;;;;;16.40;9.20;;;14.50;92.50;;;;;;5032004;28;20219;-79
2022/09/15 09:12:13;;;;;;;18.10;10.03;;;14.60;92.60;;;;;;5034543;28;20177;-79
2022/09/15 09:14:49;;;;;;;16.33;9.43;;;14.50;92.60;;;;;;5035385;28;20258;-81
2022/09/15 09:17:42;;;;;;;19.13;9.47;;;14.50;92.60;;;;;;5035931;28;20200;-80
2022/09/15 09:20:28;;;;;;;13.87;9.20;;;14.50;92.70;;;;;;5026608;28;20212;-78
2022/09/15 09:22:57;;;;;;;15.13;8.93;;;14.50;92.60;;;;;;5028007;28;20209;-80
2022/09/15 09:25:25;;;;;;;13.50;8.77;;;14.50;92.70;;;;;;5035712;28;20240;-76
2022/09/15 09:27:53;;;;;;;15.73;8.73;;;14.60;92.90;;;;;;5034744;28;20203;-79
2022/09/15 09:30:23;;;;;;;13.90;9.40;;;14.60;92.90;;;;;;5035252;28;20177;-76
2022/09/15 09:32:59;;;;;;;17.90;9.70;;;14.60;92.90;;;;;;5033704;28;20536;-74
2022/09/15 09:35:30;;;;;;;14.27;8.60;;;14.60;92.90;;;;;;5033705;28;20172;-79
2022/09/15 09:37:58;;;;;;;15.00;9.37;;;14.60;92.90;;;;;;5035165;28;20518;-82
2022/09/15 09:40:26;;;;;;;15.17;9.70;;;14.50;92.90;;;;;;5031321;28;20188;-80
2022/09/15 09:42:54;;;;;;;15.23;9.83;;;14.60;92.90;;;;;;5034973;28;20579;-83
2022/09/15 09:45:22;;;;;;;17.27;8.90;;;14.60;93.00;;;;;;5034924;28;20184;-78
2022/09/15 09:47:50;;;;;;;13.53;9.00;;;14.60;92.90;;;;;;5034790;28;20184;-79
2022/09/15 09:50:43;;;;;;;13.77;8.33;;;14.60;92.90;;;;;;5035175;28;20188;-80
2022/09/15 09:53:32;;;;;;;13.63;9.23;;;14.60;92.90;;;;;;5024895;28;20234;-78
2022/09/15 09:56:22;;;;;;;11.93;8.93;;;14.50;92.90;;;;;;5035088;28;20179;-81
2022/09/15 09:58:50;;;;;;;10.83;8.47;;;14.60;92.80;;;;;;5033128;28;20192;-78
2022/09/15 10:01:20;;;;;;;15.10;9.57;;;14.60;92.80;;;;;;5034750;28;20172;-80
2022/09/15 10:03:47;;;;;;;15.43;8.90;;;14.50;92.80;;;;;;5035817;28;20227;-82
2022/09/15 10:06:22;;;;;;;15.57;9.60;;;14.60;92.80;;;;;;5032334;28;20278;-80
2022/09/15 10:09:07;;;;;;;9.83;8.50;;;14.60;92.90;;;;;;5015884;28;20223;-82
2022/09/15 10:11:50;;;;;;;10.80;8.83;;;14.60;92.80;;;;;;5028505;28;20179;-81
2022/09/15 10:14:36;;;;;;;15.17;9.00;;;14.60;92.90;;;;;;5033467;28;20185;-82
2022/09/15 10:17:19;;;;;;;12.17;8.87;;;14.60;92.90;;;;;;5033405;28;20184;-80
2022/09/15 10:19:58;;;;;;;10.93;8.20;;;14.60;92.90;;;;;;5032557;28;20254;-80
2022/09/15 10:22:36;;;;;;;12.83;8.40;;;14.70;92.90;;;;;;5033935;28;20179;-82
2022/09/15 10:25:25;;;;;;;13.03;8.30;;;14.60;92.90;;;;;;5034282;28;20199;-82
2022/09/15 10:28:21;;;;;;;12.07;8.33;;;14.70;92.90;;;;;;5024556;28;20278;-80
2022/09/15 10:31:00;;;;;;;14.43;8.57;;;14.70;92.90;;;;;;5034239;28;20208;-83
2022/09/15 10:33:30;;;;;;;12.23;9.13;;;14.70;92.90;;;;;;5034229;28;20513;-83
2022/09/15 10:36:22;;;;;;;14.83;8.97;;;14.70;93.10;;;;;;5034123;28;20196;-83
2022/09/15 10:39:04;;;;;;;15.10;9.90;;;14.70;93.00;;;;;;5033935;28;20684;-80
2022/09/15 10:41:35;;;;;;;11.00;9.90;;;14.70;92.90;;;;;;5034195;28;20219;-80
2022/09/15 10:44:02;;;;;;;12.37;9.73;;;14.70;93.00;;;;;;5031477;28;20260;-80
2022/09/15 10:46:58;;;;;;;16.10;10.17;;;14.70;93.00;;;;;;5034484;28;20252;-81
2022/09/15 10:49:41;;;;;;;14.17;9.73;;;14.70;93.00;;;;;;5045358;28;20240;-82
2022/09/15 10:52:45;;;;;;;16.53;9.93;;;14.70;93.10;;;;;;5033413;28;20188;-83
2022/09/15 10:55:45;;;;;;;15.50;10.23;;;14.70;93.10;;;;;;5033562;28;20172;-83
2022/09/15 10:58:32;;;;;;;14.60;10.67;;;14.70;93.20;;;;;;5033284;28;20283;-81
2022/09/15 11:01:05;;;;;;;14.10;10.40;;;14.70;93.20;;;;;;5035874;28;20177;-81
2022/09/15 11:03:59;;;;;;;14.10;12.00;;;14.70;93.20;;;;;;5022729;28;20219;-86
2022/09/15 11:06:41;;;;;;;15.30;12.80;;;14.70;93.20;;;;;;5033565;28;20360;-81
2022/09/15 11:09:22;;;;;;;16.40;12.63;;;14.60;93.20;;;;;;5033074;28;20227;-82
2022/09/15 11:12:04;;;;;;;14.13;12.73;;;14.60;93.20;;;;;;5031795;28;20212;-78
2022/09/15 11:14:38;;;;;;;13.90;12.43;;;14.60;93.30;;;;;;5026541;28;20180;-80
2022/09/15 11:17:38;;;;;;;14.70;12.80;;;14.60;93.30;;;;;;5024272;28;20180;-81
2022/09/15 11:20:09;;;;;;;16.53;13.17;;;14.60;93.30;;;;;;5033172;28;20662;-79
2022/09/15 11:23:01;;;;;;;16.37;13.23;;;14.60;93.40;;;;;;5033203;28;20172;-82
2022/09/15 11:25:34;;;;;;;16.43;13.23;;;14.60;93.40;;;;;;5027976;28;20197;-80
2022/09/15 11:28:20;;;;;;;18.43;14.60;;;14.60;93.50;;;;;;5031770;28;20287;-79
2022/09/15 11:31:08;;;;;;;19.07;14.73;;;14.60;93.60;;;;;;5032989;28;20234;-80
2022/09/15 11:33:47;;;;;;;19.13;14.67;;;14.60;93.60;;;;;;5032841;28;20181;-81
2022/09/15 11:36:16;;;;;;;20.73;14.60;;;14.60;93.60;;;;;;5032524;28;20164;-79
2022/09/15 11:39:18;;;;;;;17.20;14.40;;;14.50;93.60;;;;;;5031594;28;20271;-80
2022/09/15 11:41:55;;;;;;;16.93;14.73;;;14.50;93.60;;;;;;5032594;28;20180;-80
2022/09/15 11:44:43;;;;;;;19.80;16.27;;;14.50;93.70;;;;;;5031194;28;20337;-81
2022/09/15 11:47:25;;;;;;;20.37;16.20;;;14.50;93.80;;;;;;5033037;28;20562;-82
2022/09/15 11:49:56;;;;;;;21.13;14.90;;;14.50;93.80;;;;;;5032386;28;20309;-80
2022/09/15 11:52:39;;;;;;;22.47;15.87;;;14.40;93.80;;;;;;5032784;28;20230;-82
2022/09/15 11:55:34;;;;;;;20.87;16.23;;;14.40;93.70;;;;;;5020076;28;20180;-80
2022/09/15 11:58:32;;;;;;;20.23;15.57;;;14.30;93.80;;;;;;5023162;28;20214;-79
2022/09/15 12:01:08;;;;;;;21.30;17.50;;;14.30;93.90;;;;;;5032492;28;20292;-79
2022/09/15 12:03:45;;;;;;;19.60;17.50;;;14.40;93.90;;;;;;5032205;28;20260;-78
2022/09/15 12:06:25;;;;;;;20.30;17.17;;;14.30;93.70;;;;;;5021008;28;20224;-78
2022/09/15 12:09:01;;;;;;;21.47;17.80;;;14.30;93.80;;;;;;5032242;28;20204;-77
2022/09/15 12:11:41;;;;;;;24.33;19.37;;;14.30;93.80;;;;;;5032590;28;20172;-79
2022/09/15 12:14:34;;;;;;;21.27;18.43;;;14.30;93.90;;;;;;5032389;28;20654;-81
2022/09/15 12:17:04;;;;;;;21.67;17.77;;;14.40;93.90;;;;;;5032583;28;20227;-78
2022/09/15 12:19:46;;;;;;;20.83;17.53;;;14.30;93.80;;;;;;5032215;28;20258;-78
2022/09/15 12:22:25;;;;;;;23.70;18.90;;;14.30;93.80;;;;;;5030741;28;20654;-78
2022/09/15 12:25:14;;;;;;;24.20;18.87;;;14.40;93.90;;;;;;5025748;28;20208;-80
2022/09/15 12:27:41;;;;;;;21.57;18.90;;;14.40;93.80;;;;;;5031935;28;20226;-80
2022/09/15 12:30:39;;;;;;;22.87;18.30;;;14.30;93.90;;;;;;5031963;28;20263;-76
2022/09/15 12:33:42;;;;;;;20.93;17.70;;;14.30;93.80;;;;;;5028594;28;20180;-77
2022/09/15 12:36:31;;;;;;;21.23;17.93;;;14.30;93.80;;;;;;5031543;28;20282;-78
2022/09/15 12:39:01;;;;;;;20.53;17.57;;;14.30;93.90;;;;;;5031182;28;20207;-78
2022/09/15 12:41:29;;;;;;;20.20;17.97;;;14.30;93.80;;;;;;5031173;28;20182;-78
2022/09/15 12:44:23;;;;;;;20.33;16.37;;;14.30;93.80;;;;;;5020342;28;20513;-81
2022/09/15 12:46:57;;;;;;;16.70;14.90;;;14.20;93.80;;;;;;5034475;28;20178;-84
2022/09/15 12:49:33;;;;;;;16.37;14.53;;;14.20;93.70;;;;;;5034223;28;20648;-79
2022/09/15 12:52:04;;;;;;;13.13;11.40;;;14.20;93.90;;;;;;5022984;28;20173;-79
2022/09/15 12:54:33;;;;;;;13.60;11.80;;;14.00;93.70;;;;;;5034478;28;20595;-78
2022/09/15 12:57:01;;;;;;;12.23;11.03;;;14.00;93.90;;;;;;5025396;28;20177;-77
2022/09/15 12:59:29;;;;;;;12.30;11.10;;;14.00;93.80;;;;;;5033343;28;20583;-80
2022/09/15 13:01:57;;;;;;;12.67;10.97;;;13.90;93.80;;;;;;5036115;28;20180;-78
2022/09/15 13:04:32;;;;;;;12.83;10.23;;;13.90;93.80;;;;;;5035495;28;20204;-78
2022/09/15 13:07:15;;;;;;;12.43;10.43;;;13.90;93.90;;;;;;5027821;28;20285;-79
2022/09/15 13:09:49;;;;;;;10.67;9.57;;;13.90;93.80;;;;;;5033637;28;20563;-81
2022/09/15 13:12:18;;;;;;;13.27;10.87;;;13.90;93.80;;;;;;5035336;28;20177;-80
2022/09/15 13:14:48;;;;;;;11.30;10.00;;;13.90;93.80;;;;;;5035223;28;20268;-80
2022/09/15 13:17:25;;;;;;;11.50;10.30;;;13.80;93.80;;;;;;5035081;28;20233;-79
2022/09/15 13:19:58;;;;;;;11.50;9.87;;;13.80;93.80;;;;;;5044033;28;20176;-81
2022/09/15 13:22:40;;;;;;;11.73;10.50;;;13.80;93.80;;;;;;5035170;28;20643;-80